createdAt,value
2023-03-29T00:01:48.509Z,100296.72
2023-03-29T00:03:52.314Z,100361.13
2023-03-29T00:06:06.073Z,100322.66
2023-03-29T00:08:09.552Z,100307.63
2023-03-29T00:10:13.284Z,100310.97
2023-03-29T00:12:16.895Z,100279.16
2023-03-29T00:14:19.317Z,100304.25
2023-03-29T00:16:22.250Z,100260.84
2023-03-29T00:18:24.941Z,100310.16
2023-03-29T00:20:29.531Z,100275.81
2023-03-29T00:22:32.623Z,100334.25
2023-03-29T00:24:35.181Z,100348.50
2023-03-29T00:26:38.113Z,100349.47
2023-03-29T00:28:40.797Z,100306.88
2023-03-29T00:30:44.004Z,100266.81
2023-03-29T00:32:47.526Z,100291.81
2023-03-29T00:34:51.743Z,100336.84
2023-03-29T00:36:58.356Z,100315.88
2023-03-29T00:39:01.041Z,100349.47
2023-03-29T00:41:07.013Z,100250.22
2023-03-29T00:43:12.581Z,100362.19
2023-03-29T00:45:30.678Z,100306.28
2023-03-29T00:47:51.325Z,100303.88
2023-03-29T00:49:58.113Z,100245.47
2023-03-29T00:52:01.493Z,100226.31
2023-03-29T00:54:08.335Z,100294.03
2023-03-29T00:56:30.302Z,100291.50
2023-03-29T00:58:41.071Z,100294.88
2023-03-29T01:00:53.182Z,100265.66
2023-03-29T01:03:00.441Z,100287.28
2023-03-29T01:05:08.922Z,100284.72
2023-03-29T01:07:21.791Z,100334.06
2023-03-29T01:09:27.679Z,100254.72
2023-03-29T01:11:46.991Z,100237.97
2023-03-29T01:13:49.355Z,100337.59
2023-03-29T01:15:54.719Z,100262.41
2023-03-29T01:17:58.619Z,100251.59
2023-03-29T01:20:18.311Z,100241.53
2023-03-29T01:22:34.424Z,100330.19
2023-03-29T01:24:57.810Z,100321.81
2023-03-29T01:27:09.648Z,100260.78
2023-03-29T01:29:34.895Z,100315.16
2023-03-29T01:31:46.418Z,100285.03
2023-03-29T01:33:53.814Z,100320.13
2023-03-29T01:36:17.757Z,100261.56
2023-03-29T01:38:48.950Z,100310.03
2023-03-29T01:40:52.142Z,100242.34
2023-03-29T01:43:13.290Z,100314.13
2023-03-29T01:45:33.093Z,100308.22
2023-03-29T01:48:00.814Z,100310.75
2023-03-29T01:50:27.814Z,100305.63
2023-03-29T01:52:47.133Z,100274.75
2023-03-29T01:55:05.500Z,100278.09
2023-03-29T01:57:10.706Z,100244.75
2023-03-29T01:59:19.299Z,100227.22
2023-03-29T02:01:30.347Z,100188.00
2023-03-29T02:03:34.971Z,100241.44
2023-03-29T02:05:40.033Z,100246.47
2023-03-29T02:07:45.780Z,100273.31
2023-03-29T02:09:49.964Z,100272.50
2023-03-29T02:11:54.038Z,100300.97
2023-03-29T02:13:57.655Z,100264.09
2023-03-29T02:16:03.688Z,100228.16
2023-03-29T02:18:09.130Z,100274.13
2023-03-29T02:20:17.792Z,100200.59
2023-03-29T02:22:45.244Z,100257.34
2023-03-29T02:24:50.805Z,100208.09
2023-03-29T02:27:02.154Z,100234.75
2023-03-29T02:29:05.314Z,100266.53
2023-03-29T02:31:25.473Z,100244.81
2023-03-29T02:33:39.873Z,100310.03
2023-03-29T02:35:59.504Z,100236.50
2023-03-29T02:38:11.725Z,100194.75
2023-03-29T02:40:17.649Z,100239.84
2023-03-29T02:42:22.551Z,100269.09
2023-03-29T02:44:29.353Z,100303.41
2023-03-29T02:46:32.249Z,100229.06
2023-03-29T02:48:37.640Z,100275.91
2023-03-29T02:50:43.458Z,100279.25
2023-03-29T02:52:56.353Z,100251.63
2023-03-29T02:55:01.126Z,100226.69
2023-03-29T02:57:08.942Z,100283.50
2023-03-29T02:59:15.460Z,100173.28
2023-03-29T03:01:20.610Z,100285.16
2023-03-29T03:03:25.974Z,100194.09
2023-03-29T03:05:30.023Z,100264.31
2023-03-29T03:07:34.042Z,100226.69
2023-03-29T03:09:36.754Z,100255.97
2023-03-29T03:11:40.278Z,100162.41
2023-03-29T03:13:43.216Z,100283.59
2023-03-29T03:15:49.522Z,100237.69
2023-03-29T03:17:52.971Z,100181.72
2023-03-29T03:19:55.614Z,100220.19
2023-03-29T03:21:58.070Z,100221.84
2023-03-29T03:24:00.628Z,100232.56
2023-03-29T03:26:04.077Z,100199.22
2023-03-29T03:28:08.578Z,100237.69
2023-03-29T03:30:11.639Z,100243.53
2023-03-29T03:32:35.346Z,100211.81
2023-03-29T03:35:05.855Z,100240.19
2023-03-29T03:37:08.529Z,100254.38
2023-03-29T03:39:12.726Z,100221.75
2023-03-29T03:41:15.268Z,100249.34
2023-03-29T03:43:18.218Z,100163.28
2023-03-29T03:45:23.428Z,100187.47
2023-03-29T03:47:39.904Z,100236.72
2023-03-29T03:50:21.159Z,100215.09
2023-03-29T03:52:24.294Z,100188.38
2023-03-29T03:54:27.849Z,100206.72
2023-03-29T03:56:49.158Z,100234.28
2023-03-29T03:58:58.767Z,100212.63
2023-03-29T04:01:04.005Z,100184.22
2023-03-29T04:03:17.530Z,100205.97
2023-03-29T04:05:21.357Z,100231.03
2023-03-29T04:07:25.696Z,100212.63
2023-03-29T04:09:58.834Z,100261.91
2023-03-29T04:12:21.848Z,100254.41
2023-03-29T04:14:26.392Z,100193.34
2023-03-29T04:16:38.380Z,100200.81
2023-03-29T04:19:03.449Z,100198.22
2023-03-29T04:21:06.926Z,100189.94
2023-03-29T04:23:10.648Z,100173.22
2023-03-29T04:25:14.897Z,100211.59
2023-03-29T04:27:23.422Z,100198.22
2023-03-29T04:29:26.337Z,100200.72
2023-03-29T04:31:38.259Z,100172.31
2023-03-29T04:34:07.653Z,100262.47
2023-03-29T04:36:10.911Z,100163.06
2023-03-29T04:38:13.536Z,100165.56
2023-03-29T04:40:19.924Z,100203.13
2023-03-29T04:42:39.593Z,100206.44
2023-03-29T04:44:44.082Z,100240.69
2023-03-29T04:46:49.990Z,100219.69
2023-03-29T04:49:31.584Z,100177.00
2023-03-29T04:51:34.743Z,100186.94
2023-03-29T04:53:38.342Z,100232.81
2023-03-29T04:55:42.429Z,100251.16
2023-03-29T04:57:49.699Z,100206.03
2023-03-29T04:59:59.804Z,100191.84
2023-03-29T05:02:22.334Z,100162.56
2023-03-29T05:04:26.889Z,100232.69
2023-03-29T05:06:42.746Z,100203.50
2023-03-29T05:08:45.774Z,100204.34
2023-03-29T05:11:07.014Z,100147.47
2023-03-29T05:13:10.685Z,100275.13
2023-03-29T05:15:15.084Z,100219.88
2023-03-29T05:17:17.985Z,100269.13
2023-03-29T05:19:25.982Z,100147.06
2023-03-29T05:21:31.901Z,100166.97
2023-03-29T05:23:37.873Z,100216.91
2023-03-29T05:25:44.268Z,100229.31
2023-03-29T05:27:47.586Z,100166.47
2023-03-29T05:29:50.452Z,100198.81
2023-03-29T05:32:16.927Z,100210.22
2023-03-29T05:34:21.056Z,100226.59
2023-03-29T05:36:29.201Z,100142.19
2023-03-29T05:38:34.503Z,100160.28
2023-03-29T05:40:38.171Z,100261.00
2023-03-29T05:43:01.999Z,100216.75
2023-03-29T05:45:07.052Z,100223.13
2023-03-29T05:47:09.850Z,100162.94
2023-03-29T05:49:12.955Z,100211.78
2023-03-29T05:51:33.938Z,100227.22
2023-03-29T05:53:37.129Z,100166.06
2023-03-29T05:55:40.172Z,100215.75
2023-03-29T05:57:43.297Z,100211.38
2023-03-29T05:59:46.071Z,100218.66
2023-03-29T06:01:50.172Z,100182.53
2023-03-29T06:03:57.680Z,100153.81
2023-03-29T06:06:07.580Z,100236.81
2023-03-29T06:08:11.747Z,100206.44
2023-03-29T06:10:25.543Z,100164.38
2023-03-29T06:12:36.078Z,100246.25
2023-03-29T06:14:39.869Z,100259.25
2023-03-29T06:16:53.686Z,100195.75
2023-03-29T06:18:57.033Z,100178.50
2023-03-29T06:21:02.604Z,100221.53
2023-03-29T06:23:05.582Z,100205.72
2023-03-29T06:25:11.509Z,100171.69
2023-03-29T06:27:15.994Z,100219.28
2023-03-29T06:29:19.586Z,100216.66
2023-03-29T06:31:23.251Z,100242.50
2023-03-29T06:33:27.943Z,100172.97
2023-03-29T06:35:38.580Z,100172.66
2023-03-29T06:37:50.595Z,100207.28
2023-03-29T06:40:02.909Z,100226.13
2023-03-29T06:42:21.340Z,100211.28
2023-03-29T06:44:43.489Z,100218.50
2023-03-29T06:46:55.057Z,100156.69
2023-03-29T06:48:57.612Z,100179.81
2023-03-29T06:51:08.767Z,100205.28
2023-03-29T06:53:11.805Z,100225.56
2023-03-29T06:55:16.243Z,100247.66
2023-03-29T06:57:19.001Z,100219.50
2023-03-29T06:59:22.179Z,100205.69
2023-03-29T07:01:30.794Z,100200.16
2023-03-29T07:03:39.819Z,100186.75
2023-03-29T07:05:42.896Z,100211.56
2023-03-29T07:08:00.893Z,100216.16
2023-03-29T07:10:13.141Z,100197.13
2023-03-29T07:12:42.585Z,100236.94
2023-03-29T07:14:46.607Z,100195.59
2023-03-29T07:16:52.394Z,100144.69
2023-03-29T07:19:04.117Z,100214.34
2023-03-29T07:21:30.712Z,100181.03
2023-03-29T07:23:33.548Z,100161.53
2023-03-29T07:25:38.165Z,100235.25
2023-03-29T07:27:42.755Z,100201.34
2023-03-29T07:29:45.833Z,100207.22
2023-03-29T07:31:49.205Z,100183.25
2023-03-29T07:34:18.156Z,100228.69
2023-03-29T07:36:20.736Z,100212.34
2023-03-29T07:38:23.874Z,100178.28
2023-03-29T07:40:44.763Z,100214.97
2023-03-29T07:43:15.763Z,100197.31
2023-03-29T07:45:26.240Z,100196.16
2023-03-29T07:47:45.190Z,100216.06
2023-03-29T07:49:48.543Z,100212.31
2023-03-29T07:51:51.209Z,100227.03
2023-03-29T07:53:54.482Z,100177.84
2023-03-29T07:56:16.715Z,100245.56
2023-03-29T07:58:30.082Z,100250.59
2023-03-29T08:00:34.560Z,100203.00
2023-03-29T08:03:17.277Z,100202.66
2023-03-29T08:05:37.926Z,100217.00
2023-03-29T08:07:47.730Z,100199.28
2023-03-29T08:09:50.420Z,100226.34
2023-03-29T08:11:57.942Z,100186.63
2023-03-29T08:14:07.908Z,100173.03
2023-03-29T08:16:30.253Z,100215.41
2023-03-29T08:18:44.107Z,100163.13
2023-03-29T08:20:47.194Z,100192.84
2023-03-29T08:22:49.705Z,100182.41
2023-03-29T08:24:52.488Z,100207.38
2023-03-29T08:26:57.327Z,100182.06
2023-03-29T08:29:01.038Z,100199.84
2023-03-29T08:31:04.316Z,100166.59
2023-03-29T08:33:08.058Z,100197.34
2023-03-29T08:35:11.304Z,100207.06
2023-03-29T08:37:21.418Z,100170.31
2023-03-29T08:39:26.925Z,100181.88
2023-03-29T08:42:07.752Z,100214.03
2023-03-29T08:44:22.097Z,100206.69
2023-03-29T08:47:02.131Z,100168.16
2023-03-29T08:49:14.082Z,100169.16
2023-03-29T08:51:42.819Z,100206.34
2023-03-29T08:53:59.466Z,100176.34
2023-03-29T08:56:14.285Z,100158.22
2023-03-29T08:58:47.654Z,100129.50
2023-03-29T09:01:02.731Z,100170.63
2023-03-29T09:03:19.829Z,100191.69
2023-03-29T09:05:38.406Z,100148.28
2023-03-29T09:07:57.435Z,100160.75
2023-03-29T09:10:01.190Z,100143.59
2023-03-29T09:12:31.107Z,100155.56
2023-03-29T09:14:46.324Z,100182.19
2023-03-29T09:17:18.645Z,100155.13
2023-03-29T09:19:24.216Z,100178.72
2023-03-29T09:21:47.272Z,100140.38
2023-03-29T09:23:58.345Z,100181.25
2023-03-29T09:26:48.483Z,100175.34
2023-03-29T09:29:32.148Z,100166.97
2023-03-29T09:31:45.745Z,100172.78
2023-03-29T09:34:00.581Z,100119.00
2023-03-29T09:36:25.935Z,100149.06
2023-03-29T09:38:31.682Z,100139.88
2023-03-29T09:40:41.932Z,100140.91
2023-03-29T09:42:53.268Z,100130.69
2023-03-29T09:45:08.834Z,100156.78
2023-03-29T09:47:26.505Z,100174.75
2023-03-29T09:49:36.687Z,100166.22
2023-03-29T09:51:42.372Z,100115.59
2023-03-29T09:53:47.231Z,100079.44
2023-03-29T09:56:16.312Z,100127.00
2023-03-29T09:58:31.973Z,100157.16
2023-03-29T10:00:35.270Z,100119.97
2023-03-29T10:02:38.555Z,100073.19
2023-03-29T10:04:43.682Z,100104.59
2023-03-29T10:06:50.615Z,100109.44
2023-03-29T10:08:57.171Z,100115.41
2023-03-29T10:11:30.599Z,100114.34
2023-03-29T10:13:35.705Z,100090.25
2023-03-29T10:15:38.403Z,100080.00
2023-03-29T10:17:43.291Z,100073.88
2023-03-29T10:19:51.833Z,100103.66
2023-03-29T10:21:56.172Z,100073.50
2023-03-29T10:24:02.436Z,100104.13
2023-03-29T10:26:12.168Z,100078.50
2023-03-29T10:28:18.117Z,100047.34
2023-03-29T10:30:24.274Z,100114.16
2023-03-29T10:32:38.417Z,100068.78
2023-03-29T10:34:41.904Z,100065.41
2023-03-29T10:37:02.504Z,100058.72
2023-03-29T10:39:06.576Z,100045.56
2023-03-29T10:41:15.043Z,100082.50
2023-03-29T10:43:18.055Z,100048.66
2023-03-29T10:45:35.086Z,100046.50
2023-03-29T10:47:38.556Z,100032.72
2023-03-29T10:49:45.013Z,100039.66
2023-03-29T10:51:51.618Z,100059.97
2023-03-29T10:53:54.694Z,100059.41
2023-03-29T10:56:19.409Z,100067.53
2023-03-29T10:58:54.957Z,100020.03
2023-03-29T11:00:58.526Z,99987.06
2023-03-29T11:03:21.981Z,100027.84
2023-03-29T11:05:39.563Z,100058.63
2023-03-29T11:08:17.323Z,100011.03
2023-03-29T11:10:32.570Z,100044.91
2023-03-29T11:13:04.428Z,100019.03
2023-03-29T11:15:37.852Z,100039.97
2023-03-29T11:17:52.644Z,100001.97
2023-03-29T11:20:00.927Z,100020.09
2023-03-29T11:22:14.361Z,100036.53
2023-03-29T11:24:41.825Z,100037.38
2023-03-29T11:27:13.506Z,100028.19
2023-03-29T11:29:52.243Z,100027.41
2023-03-29T11:32:17.067Z,100023.44
2023-03-29T11:34:49.523Z,100016.34
2023-03-29T11:37:06.182Z,99973.28
2023-03-29T11:39:20.247Z,100002.47
2023-03-29T11:41:33.447Z,99971.50
2023-03-29T11:43:43.076Z,99944.44
2023-03-29T11:45:56.589Z,99955.19
2023-03-29T11:48:03.341Z,99966.88
2023-03-29T11:50:27.995Z,99963.69
2023-03-29T11:52:30.454Z,99988.56
2023-03-29T11:54:46.219Z,99983.38
2023-03-29T11:57:14.834Z,99936.88
2023-03-29T11:59:57.501Z,99981.47
2023-03-29T12:02:19.084Z,99938.47
2023-03-29T12:04:33.172Z,99929.91
2023-03-29T12:06:46.458Z,99981.25
2023-03-29T12:09:01.230Z,99961.75
2023-03-29T12:11:36.826Z,99973.81
2023-03-29T12:13:53.010Z,99934.97
2023-03-29T12:16:07.557Z,99921.38
2023-03-29T12:18:47.565Z,99954.22
2023-03-29T12:21:14.308Z,99925.78
2023-03-29T12:23:18.869Z,99929.47
2023-03-29T12:25:31.994Z,99931.56
2023-03-29T12:27:53.039Z,99963.91
2023-03-29T12:30:17.352Z,99957.84
2023-03-29T12:32:32.928Z,99950.34
2023-03-29T12:35:20.165Z,99959.66
2023-03-29T12:38:05.858Z,99911.78
2023-03-29T12:40:35.821Z,99935.63
2023-03-29T12:43:27.634Z,99953.41
2023-03-29T12:45:56.411Z,99936.47
2023-03-29T12:48:01.812Z,99886.44
2023-03-29T12:50:04.954Z,99879.44
2023-03-29T12:52:31.843Z,99928.50
2023-03-29T12:54:34.476Z,99887.53
2023-03-29T12:56:42.266Z,99878.63
2023-03-29T12:59:09.768Z,99915.00
2023-03-29T13:01:27.476Z,99886.53
2023-03-29T13:03:47.886Z,99893.50
2023-03-29T13:06:01.377Z,99880.03
2023-03-29T13:08:42.839Z,99862.94
2023-03-29T13:10:54.515Z,99887.38
2023-03-29T13:12:58.023Z,99854.91
2023-03-29T13:15:03.677Z,99865.00
2023-03-29T13:17:18.415Z,99846.66
2023-03-29T13:19:52.317Z,99886.75
2023-03-29T13:22:26.412Z,99895.22
2023-03-29T13:25:06.672Z,99849.09
2023-03-29T13:27:43.855Z,99845.34
2023-03-29T13:30:09.525Z,99880.72
2023-03-29T13:32:30.507Z,99873.53
2023-03-29T13:34:39.384Z,99872.41
2023-03-29T13:37:06.551Z,99820.28
2023-03-29T13:39:19.993Z,99836.44
2023-03-29T13:41:31.959Z,99869.44
2023-03-29T13:43:43.010Z,99829.25
2023-03-29T13:45:58.683Z,99819.75
2023-03-29T13:48:25.696Z,99840.06
2023-03-29T13:50:57.109Z,99859.44
2023-03-29T13:53:14.092Z,99821.50
2023-03-29T13:55:23.036Z,99861.19
2023-03-29T13:57:35.271Z,99841.22
2023-03-29T13:59:48.514Z,99843.84
2023-03-29T14:01:58.374Z,99828.81
2023-03-29T14:04:03.383Z,99810.94
2023-03-29T14:06:10.312Z,99805.53
2023-03-29T14:08:26.226Z,99819.53
2023-03-29T14:10:45.591Z,99797.00
2023-03-29T14:12:49.422Z,99834.47
2023-03-29T14:14:59.282Z,99792.53
2023-03-29T14:17:03.190Z,99801.66
2023-03-29T14:19:24.042Z,99809.25
2023-03-29T14:21:27.389Z,99806.97
2023-03-29T14:23:32.674Z,99798.94
2023-03-29T14:25:40.027Z,99801.09
2023-03-29T14:27:43.070Z,99792.78
2023-03-29T14:29:47.630Z,99798.56
2023-03-29T14:31:50.747Z,99834.78
2023-03-29T14:33:54.952Z,99781.97
2023-03-29T14:36:02.221Z,99773.56
2023-03-29T14:38:05.529Z,99783.88
2023-03-29T14:40:19.426Z,99793.97
2023-03-29T14:42:27.250Z,99732.94
2023-03-29T14:44:35.135Z,99808.88
2023-03-29T14:46:38.877Z,99784.00
2023-03-29T14:48:42.930Z,99789.75
2023-03-29T14:50:47.205Z,99775.09
2023-03-29T14:52:52.606Z,99784.44
2023-03-29T14:54:59.904Z,99813.41
2023-03-29T14:57:08.929Z,99781.72
2023-03-29T14:59:39.058Z,99736.75
2023-03-29T15:01:45.019Z,99772.91
2023-03-29T15:03:55.403Z,99754.94
2023-03-29T15:06:01.964Z,99781.50
2023-03-29T15:08:07.653Z,99798.47
2023-03-29T15:10:19.688Z,99796.91
2023-03-29T15:12:23.033Z,99814.69
2023-03-29T15:14:30.081Z,99781.56
2023-03-29T15:16:34.463Z,99779.53
2023-03-29T15:18:42.784Z,99766.00
2023-03-29T15:20:45.959Z,99782.41
2023-03-29T15:23:17.490Z,99790.44
2023-03-29T15:25:21.655Z,99805.91
2023-03-29T15:27:24.308Z,99803.56
2023-03-29T15:29:43.966Z,99768.28
2023-03-29T15:31:56.606Z,99778.31
2023-03-29T15:34:09.483Z,99801.38
2023-03-29T15:36:14.810Z,99765.19
2023-03-29T15:38:19.785Z,99757.19
2023-03-29T15:40:28.555Z,99779.41
2023-03-29T15:42:31.755Z,99746.84
2023-03-29T15:44:34.629Z,99742.94
2023-03-29T15:46:38.183Z,99741.28
2023-03-29T15:48:41.221Z,99710.41
2023-03-29T15:50:45.486Z,99777.63
2023-03-29T15:52:48.018Z,99726.28
2023-03-29T15:54:50.638Z,99719.53
2023-03-29T15:57:02.161Z,99755.06
2023-03-29T15:59:05.606Z,99724.38
2023-03-29T16:01:38.004Z,99776.72
2023-03-29T16:03:40.692Z,99751.75
2023-03-29T16:05:44.990Z,99718.56
2023-03-29T16:07:47.374Z,99739.09
2023-03-29T16:09:50.055Z,99733.22
2023-03-29T16:11:52.641Z,99738.19
2023-03-29T16:13:56.316Z,99773.25
2023-03-29T16:15:58.919Z,99759.66
2023-03-29T16:18:01.486Z,99704.38
2023-03-29T16:20:06.040Z,99725.13
2023-03-29T16:22:09.021Z,99730.78
2023-03-29T16:24:18.051Z,99739.00
2023-03-29T16:26:22.497Z,99680.19
2023-03-29T16:28:26.444Z,99758.22
2023-03-29T16:30:31.667Z,99731.97
2023-03-29T16:32:34.395Z,99757.97
2023-03-29T16:34:38.600Z,99766.66
2023-03-29T16:36:41.956Z,99752.84
2023-03-29T16:38:44.667Z,99743.00
2023-03-29T16:40:47.839Z,99741.69
2023-03-29T16:42:51.739Z,99739.00
2023-03-29T16:44:55.557Z,99747.94
2023-03-29T16:46:59.134Z,99748.38
2023-03-29T16:49:02.698Z,99727.84
2023-03-29T16:51:06.371Z,99695.00
2023-03-29T16:53:10.086Z,99773.97
2023-03-29T16:55:15.585Z,99766.38
2023-03-29T16:57:18.834Z,99743.38
2023-03-29T16:59:21.347Z,99741.00
2023-03-29T17:01:23.752Z,99729.84
2023-03-29T17:03:26.560Z,99775.50
2023-03-29T17:05:29.257Z,99762.72
2023-03-29T17:07:34.040Z,99771.28
2023-03-29T17:09:37.122Z,99754.44
2023-03-29T17:11:39.933Z,99743.22
2023-03-29T17:13:42.525Z,99755.41
2023-03-29T17:15:45.312Z,99755.47
2023-03-29T17:17:48.406Z,99706.00
2023-03-29T17:19:52.332Z,99768.69
2023-03-29T17:21:55.207Z,99758.81
2023-03-29T17:23:58.050Z,99747.25
2023-03-29T17:26:01.473Z,99744.53
2023-03-29T17:28:05.041Z,99756.25
2023-03-29T17:30:08.318Z,99722.34
2023-03-29T17:32:11.105Z,99737.38
2023-03-29T17:34:19.559Z,99784.75
2023-03-29T17:36:24.468Z,99729.53
2023-03-29T17:38:29.889Z,99779.66
2023-03-29T17:40:32.678Z,99759.50
2023-03-29T17:42:35.080Z,99766.31
2023-03-29T17:44:37.867Z,99795.66
2023-03-29T17:46:41.672Z,99773.50
2023-03-29T17:48:44.635Z,99718.91
2023-03-29T17:50:47.863Z,99757.81
2023-03-29T17:52:50.881Z,99770.56
2023-03-29T17:54:53.590Z,99771.81
2023-03-29T17:56:56.536Z,99750.19
2023-03-29T17:59:00.227Z,99790.44
2023-03-29T18:01:13.825Z,99801.63
2023-03-29T18:03:16.418Z,99754.72
2023-03-29T18:05:19.101Z,99801.25
2023-03-29T18:07:21.632Z,99751.44
2023-03-29T18:09:26.677Z,99806.19
2023-03-29T18:11:31.090Z,99776.75
2023-03-29T18:13:33.950Z,99751.63
2023-03-29T18:15:36.920Z,99718.53
2023-03-29T18:17:40.063Z,99787.28
2023-03-29T18:19:43.146Z,99756.00
2023-03-29T18:21:45.793Z,99784.72
2023-03-29T18:23:52.909Z,99769.97
2023-03-29T18:26:08.315Z,99789.88
2023-03-29T18:28:11.192Z,99785.41
2023-03-29T18:30:17.077Z,99775.81
2023-03-29T18:32:19.899Z,99766.47
2023-03-29T18:34:22.922Z,99772.31
2023-03-29T18:36:26.426Z,99766.56
2023-03-29T18:38:29.934Z,99805.69
2023-03-29T18:40:32.784Z,99810.44
2023-03-29T18:42:35.798Z,99729.69
2023-03-29T18:44:39.052Z,99724.75
2023-03-29T18:46:41.567Z,99748.53
2023-03-29T18:48:44.276Z,99768.59
2023-03-29T18:50:47.562Z,99757.91
2023-03-29T18:52:51.306Z,99729.69
2023-03-29T18:54:53.895Z,99754.78
2023-03-29T18:56:59.056Z,99796.63
2023-03-29T18:59:06.649Z,99753.53
2023-03-29T19:01:11.230Z,99770.41
2023-03-29T19:03:14.452Z,99744.66
2023-03-29T19:05:17.621Z,99809.94
2023-03-29T19:07:21.260Z,99746.22
2023-03-29T19:09:24.496Z,99750.13
2023-03-29T19:11:29.062Z,99769.06
2023-03-29T19:13:32.601Z,99775.66
2023-03-29T19:15:35.428Z,99759.00
2023-03-29T19:17:38.846Z,99715.25
2023-03-29T19:19:41.772Z,99696.91
2023-03-29T19:21:47.558Z,99741.59
2023-03-29T19:23:53.520Z,99764.28
2023-03-29T19:25:59.491Z,99766.34
2023-03-29T19:28:04.042Z,99797.91
2023-03-29T19:30:08.074Z,99756.63
2023-03-29T19:32:10.748Z,99734.78
2023-03-29T19:34:13.403Z,99746.97
2023-03-29T19:36:17.618Z,99736.34
2023-03-29T19:38:21.876Z,99788.66
2023-03-29T19:40:24.868Z,99723.28
2023-03-29T19:42:27.856Z,99724.81
2023-03-29T19:44:31.108Z,99777.13
2023-03-29T19:46:33.849Z,99776.00
2023-03-29T19:48:38.236Z,99726.41
2023-03-29T19:50:42.739Z,99755.09
2023-03-29T19:52:45.200Z,99750.38
2023-03-29T19:54:48.653Z,99739.91
2023-03-29T19:56:52.977Z,99741.53
2023-03-29T19:58:56.421Z,99734.94
2023-03-29T20:00:59.460Z,99746.50
2023-03-29T20:03:03.164Z,99758.94
2023-03-29T20:05:07.750Z,99755.72
2023-03-29T20:07:10.928Z,99751.31
2023-03-29T20:09:16.941Z,99761.09
2023-03-29T20:11:24.177Z,99772.63
2023-03-29T20:13:37.696Z,99743.59
2023-03-29T20:15:46.353Z,99729.63
2023-03-29T20:17:49.524Z,99730.94
2023-03-29T20:19:54.391Z,99736.59
2023-03-29T20:21:59.260Z,99767.91
2023-03-29T20:24:02.019Z,99725.81
2023-03-29T20:26:04.520Z,99704.50
2023-03-29T20:28:07.280Z,99737.53
2023-03-29T20:30:11.548Z,99746.47
2023-03-29T20:32:14.688Z,99703.88
2023-03-29T20:34:18.910Z,99730.34
2023-03-29T20:36:23.223Z,99780.56
2023-03-29T20:38:26.329Z,99754.31
2023-03-29T20:40:30.484Z,99724.47
2023-03-29T20:42:34.765Z,99752.03
2023-03-29T20:44:40.236Z,99735.38
2023-03-29T20:46:55.001Z,99724.66
2023-03-29T20:48:58.164Z,99703.44
2023-03-29T20:51:03.496Z,99684.34
2023-03-29T20:53:07.724Z,99736.81
2023-03-29T20:55:12.971Z,99738.88
2023-03-29T20:57:18.582Z,99734.97
2023-03-29T20:59:23.225Z,99710.91
2023-03-29T21:01:28.778Z,99755.75
2023-03-29T21:03:31.951Z,99714.38
2023-03-29T21:05:34.961Z,99710.34
2023-03-29T21:07:38.161Z,99658.44
2023-03-29T21:09:42.491Z,99715.22
2023-03-29T21:11:45.533Z,99743.00
2023-03-29T21:13:48.488Z,99677.13
2023-03-29T21:15:51.607Z,99705.75
2023-03-29T21:17:54.410Z,99714.91
2023-03-29T21:19:57.270Z,99661.50
2023-03-29T21:21:59.906Z,99690.41
2023-03-29T21:24:04.470Z,99715.94
2023-03-29T21:26:09.724Z,99692.38
2023-03-29T21:28:13.764Z,99680.13
2023-03-29T21:30:16.748Z,99711.09
2023-03-29T21:32:19.719Z,99696.69
2023-03-29T21:34:23.355Z,99727.88
2023-03-29T21:36:26.384Z,99697.31
2023-03-29T21:38:29.065Z,99683.63
2023-03-29T21:40:31.904Z,99680.25
2023-03-29T21:42:34.734Z,99675.44
2023-03-29T21:44:37.075Z,99630.25
2023-03-29T21:46:39.522Z,99706.16
2023-03-29T21:48:42.357Z,99703.06
2023-03-29T21:50:48.253Z,99721.09
2023-03-29T21:52:51.338Z,99696.19
2023-03-29T21:54:53.886Z,99695.66
2023-03-29T21:56:56.532Z,99708.66
2023-03-29T21:58:59.080Z,99700.41
2023-03-29T22:01:04.356Z,99668.41
2023-03-29T22:03:08.109Z,99677.06
2023-03-29T22:05:11.159Z,99650.84
2023-03-29T22:07:14.138Z,99665.72
2023-03-29T22:09:16.478Z,99663.88
2023-03-29T22:11:20.278Z,99667.19
2023-03-29T22:13:28.362Z,99653.50
2023-03-29T22:15:36.163Z,99675.72
2023-03-29T22:17:38.639Z,99686.81
2023-03-29T22:19:42.212Z,99673.97
2023-03-29T22:21:45.086Z,99674.69
2023-03-29T22:23:50.134Z,99696.19
2023-03-29T22:25:52.786Z,99640.22
2023-03-29T22:27:55.414Z,99709.44
2023-03-29T22:29:59.197Z,99661.22
2023-03-29T22:32:02.509Z,99676.22
2023-03-29T22:34:05.182Z,99673.25
2023-03-29T22:36:25.105Z,99710.16
2023-03-29T22:38:28.798Z,99674.78
2023-03-29T22:40:33.609Z,99666.56
2023-03-29T22:42:35.914Z,99642.50
2023-03-29T22:44:38.315Z,99638.69
2023-03-29T22:46:40.842Z,99643.81
2023-03-29T22:48:43.411Z,99611.72
2023-03-29T22:50:49.203Z,99653.69
2023-03-29T22:52:52.798Z,99655.03
2023-03-29T22:54:55.335Z,99649.38
2023-03-29T22:56:58.184Z,99662.44
2023-03-29T22:59:01.092Z,99633.16
2023-03-29T23:01:04.419Z,99682.50
2023-03-29T23:03:07.378Z,99666.03
2023-03-29T23:05:09.955Z,99662.75
2023-03-29T23:07:12.641Z,99646.50
2023-03-29T23:09:16.492Z,99639.72
2023-03-29T23:11:19.008Z,99645.66
2023-03-29T23:13:26.160Z,99662.75
2023-03-29T23:15:29.660Z,99669.31
2023-03-29T23:17:36.183Z,99693.72
2023-03-29T23:19:39.113Z,99657.00
2023-03-29T23:21:41.398Z,99672.50
2023-03-29T23:23:43.698Z,99686.50
2023-03-29T23:25:47.876Z,99667.66
2023-03-29T23:27:51.405Z,99616.53
2023-03-29T23:29:55.792Z,99673.41
2023-03-29T23:31:59.875Z,99635.56
2023-03-29T23:34:03.467Z,99641.25
2023-03-29T23:36:14.829Z,99631.16
2023-03-29T23:38:17.513Z,99632.09
2023-03-29T23:40:20.773Z,99676.53
2023-03-29T23:42:23.268Z,99622.53
2023-03-29T23:44:25.867Z,99646.38
2023-03-29T23:46:28.579Z,99616.03
2023-03-29T23:48:33.030Z,99603.19
2023-03-29T23:50:35.515Z,99651.75
2023-03-29T23:52:38.077Z,99636.63
2023-03-29T23:54:40.717Z,99625.28
2023-03-29T23:56:44.259Z,99634.56
2023-03-29T23:58:47.523Z,99595.34
